Aviation Digital Data Service (ADDS)

Output produced by METARs form (1439 UTC 22 April 2021)
found at http://aviationweather.gov/metar/data/
 
METAR text: EDDW 221420Z 31017KT 290V350 9999 SCT034 10/01 Q1024 TEMPO 32020G30KT
Conditions at: EDDW (BREMEN , DE) observed 1420 UTC 22 April 2021
Temperature: 10.0°C (50°F)
Dewpoint: 1.0°C (34°F) [RH = 53%]
Pressure (altimeter): 30.24 inches Hg (1024.0 mb)
Winds: from the NW (310 degrees) at 20 MPH (17 knots; 8.7 m/s)
Visibility: 6 or more miles (10+ km)
Ceiling: at least 12,000 feet AGL
Clouds: scattered clouds at 3400 feet AGL
Weather: no significant weather observed at this time

METAR text: EDDW 221350Z 31017KT 290V350 9999 SCT035 10/01 Q1024 TEMPO 32020G30KT
Conditions at: EDDW (BREMEN , DE) observed 1350 UTC 22 April 2021
Temperature: 10.0°C (50°F)
Dewpoint: 1.0°C (34°F) [RH = 53%]
Pressure (altimeter): 30.24 inches Hg (1024.0 mb)
Winds: from the NW (310 degrees) at 20 MPH (17 knots; 8.7 m/s)
Visibility: 6 or more miles (10+ km)
Ceiling: at least 12,000 feet AGL
Clouds: scattered clouds at 3500 feet AGL
Weather: no significant weather observed at this time

Forecast for: EDDW (BREMEN , DE)
Text: TAF EDDW 221100Z 2212/2312 30015G25KT 9999 SCT035
Forecast period: 1200 to 1800 UTC 22 April 2021
Forecast type: FROM: standard forecast or significant change
Winds: from the WNW (300 degrees) at 17 MPH (15 knots; 7.7 m/s)
gusting to 29 MPH (25 knots; 12.9 m/s)
Visibility: 6 or more miles (10+ km)
Ceiling: at least 12,000 feet AGL
Clouds: scattered clouds at 3500 feet AGL
Weather: no significant weather forecast for this period
Text: TEMPO 2212/2217 30020G30KT
Forecast period: 1200 to 1700 UTC 22 April 2021
Forecast type: TEMPORARY: The following changes expected for less than half the time period
Winds: from the WNW (300 degrees) at 23 MPH (20 knots; 10.3 m/s)
gusting to 34 MPH (30 knots; 15.4 m/s)
Visibility: missing
Ceiling: unknown
Clouds: missing
Weather: no significant weather forecast for this period
Text: BECMG 2218/2220 29009KT
Forecast period: 1800 UTC 22 April 2021 to 1200 UTC 23 April 2021
Forecast type: BECOMING: Conditions expected to become as follows by 2000 UTC 22 April 2021
Winds: from the WNW (290 degrees) at 10 MPH (9 knots; 4.6 m/s)
Visibility: 6 or more miles (10+ km)
Ceiling: at least 12,000 feet AGL
Clouds: scattered clouds at 3500 feet AGL
Weather: no significant weather forecast for this period